createdAt,value
2023-04-10T00:00:02.759Z,98.90
2023-04-10T00:02:29.716Z,98.90
2023-04-10T00:04:56.893Z,98.90
2023-04-10T00:07:23.668Z,98.80
2023-04-10T00:09:50.419Z,98.90
2023-04-10T00:12:17.238Z,99.20
2023-04-10T00:14:43.987Z,99.00
2023-04-10T00:17:11.036Z,98.90
2023-04-10T00:19:37.822Z,99.10
2023-04-10T00:22:05.650Z,99.10
2023-04-10T00:24:32.433Z,99.30
2023-04-10T00:26:59.126Z,99.50
2023-04-10T00:29:25.947Z,99.30
2023-04-10T00:31:52.820Z,99.20
2023-04-10T00:34:19.750Z,99.20
2023-04-10T00:36:49.585Z,99.10
2023-04-10T00:39:16.645Z,99.30
2023-04-10T00:41:43.736Z,99.40
2023-04-10T00:44:10.541Z,99.60
2023-04-10T00:46:39.544Z,99.90
2023-04-10T00:49:06.921Z,99.80
2023-04-10T00:51:34.005Z,99.90
2023-04-10T00:54:02.249Z,99.90
2023-04-10T00:56:32.130Z,99.80
2023-04-10T00:58:58.992Z,99.80
2023-04-10T01:01:25.854Z,100.00
2023-04-10T01:03:54.396Z,100.00
2023-04-10T01:06:46.132Z,100.00
2023-04-10T01:09:31.197Z,100.00
2023-04-10T01:12:03.762Z,100.00
2023-04-10T01:14:52.090Z,100.00
2023-04-10T01:17:28.447Z,100.00
2023-04-10T01:20:09.832Z,100.00
2023-04-10T01:22:59.759Z,100.00
2023-04-10T01:25:42.104Z,100.00
2023-04-10T01:28:26.707Z,100.00
2023-04-10T01:30:59.255Z,100.00
2023-04-10T01:33:38.424Z,100.00
2023-04-10T01:36:07.554Z,100.00
2023-04-10T01:38:36.356Z,100.00
2023-04-10T01:41:04.615Z,100.00
2023-04-10T01:43:32.906Z,100.00
2023-04-10T01:46:02.129Z,100.00
2023-04-10T01:48:29.701Z,100.00
2023-04-10T01:50:56.787Z,100.00
2023-04-10T01:53:24.612Z,100.00
2023-04-10T01:55:53.578Z,100.00
2023-04-10T01:58:20.604Z,100.00
2023-04-10T02:00:47.705Z,100.00
2023-04-10T02:03:14.780Z,100.00
2023-04-10T02:05:44.994Z,100.00
2023-04-10T02:08:18.045Z,100.00
2023-04-10T02:11:02.609Z,100.00
2023-04-10T02:13:30.414Z,100.00
2023-04-10T02:16:02.072Z,100.00
2023-04-10T02:18:32.814Z,100.00
2023-04-10T02:20:59.848Z,100.00
2023-04-10T02:23:26.721Z,100.00
2023-04-10T02:25:53.664Z,100.00
2023-04-10T02:28:20.539Z,100.00
2023-04-10T02:30:47.298Z,100.00
2023-04-10T02:33:14.205Z,100.00
2023-04-10T02:35:41.063Z,100.00
2023-04-10T02:38:08.038Z,100.00
2023-04-10T02:40:35.586Z,100.00
2023-04-10T02:43:02.350Z,100.00
2023-04-10T02:45:29.097Z,100.00
2023-04-10T02:47:56.452Z,100.00
2023-04-10T02:50:23.182Z,100.00
2023-04-10T02:52:50.029Z,100.00
2023-04-10T02:55:16.908Z,100.00
2023-04-10T02:57:43.777Z,100.00
2023-04-10T03:00:11.088Z,100.00
2023-04-10T03:02:38.136Z,100.00
2023-04-10T03:05:05.763Z,100.00
2023-04-10T03:07:33.862Z,100.00
2023-04-10T03:10:00.699Z,100.00
2023-04-10T03:12:27.540Z,100.00
2023-04-10T03:14:54.294Z,100.00
2023-04-10T03:17:21.077Z,100.00
2023-04-10T03:19:47.895Z,100.00
2023-04-10T03:22:14.636Z,100.00
2023-04-10T03:24:41.355Z,100.00
2023-04-10T03:27:08.149Z,100.00
2023-04-10T03:29:34.883Z,100.00
2023-04-10T03:32:01.733Z,100.00
2023-04-10T03:34:28.486Z,100.00
2023-04-10T03:36:55.259Z,100.00
2023-04-10T03:39:22.141Z,100.00
2023-04-10T03:41:49.097Z,100.00
2023-04-10T03:44:16.002Z,100.00
2023-04-10T03:46:42.975Z,100.00
2023-04-10T03:49:09.807Z,100.00
2023-04-10T03:51:36.626Z,100.00
2023-04-10T03:54:03.684Z,100.00
2023-04-10T03:56:30.469Z,100.00
2023-04-10T03:58:57.177Z,100.00
2023-04-10T04:01:23.924Z,100.00
2023-04-10T04:03:50.761Z,100.00
2023-04-10T04:06:17.737Z,100.00
2023-04-10T04:08:44.531Z,100.00
2023-04-10T04:11:11.500Z,100.00
2023-04-10T04:13:38.303Z,100.00
2023-04-10T04:16:05.583Z,100.00
2023-04-10T04:18:32.392Z,100.00
2023-04-10T04:20:59.139Z,100.00
2023-04-10T04:23:26.029Z,100.00
2023-04-10T04:25:54.459Z,100.00
2023-04-10T04:28:21.205Z,100.00
2023-04-10T04:30:48.051Z,100.00
2023-04-10T04:33:15.005Z,100.00
2023-04-10T04:35:41.785Z,100.00
2023-04-10T04:38:08.582Z,100.00
2023-04-10T04:40:35.559Z,100.00
2023-04-10T04:43:02.580Z,100.00
2023-04-10T04:45:30.981Z,100.00
2023-04-10T04:47:57.853Z,100.00
2023-04-10T04:50:24.718Z,100.00
2023-04-10T04:52:51.460Z,100.00
2023-04-10T04:55:18.281Z,100.00
2023-04-10T04:57:45.094Z,100.00
2023-04-10T05:00:12.246Z,100.00
2023-04-10T05:02:39.103Z,100.00
2023-04-10T05:05:06.425Z,100.00
2023-04-10T05:07:33.139Z,100.00
2023-04-10T05:09:59.916Z,100.00
2023-04-10T05:12:26.704Z,100.00
2023-04-10T05:14:53.414Z,100.00
2023-04-10T05:17:20.386Z,100.00
2023-04-10T05:19:47.206Z,100.00
2023-04-10T05:22:13.982Z,100.00
2023-04-10T05:24:40.734Z,100.00
2023-04-10T05:27:07.503Z,100.00
2023-04-10T05:29:34.625Z,100.00
2023-04-10T05:32:01.532Z,100.00
2023-04-10T05:34:28.237Z,100.00
2023-04-10T05:36:57.516Z,100.00
2023-04-10T05:39:25.653Z,100.00
2023-04-10T05:41:52.419Z,100.00
2023-04-10T05:44:19.170Z,100.00
2023-04-10T05:46:46.104Z,100.00
2023-04-10T05:49:12.951Z,100.00
2023-04-10T05:51:39.741Z,100.00
2023-04-10T05:54:06.488Z,100.00
2023-04-10T05:56:33.242Z,100.00
2023-04-10T05:59:00.025Z,100.00
2023-04-10T06:01:26.821Z,100.00
2023-04-10T06:03:53.737Z,100.00
2023-04-10T06:06:21.851Z,100.00
2023-04-10T06:08:48.564Z,100.00
2023-04-10T06:11:15.511Z,100.00
2023-04-10T06:13:42.290Z,100.00
2023-04-10T06:16:09.363Z,100.00
2023-04-10T06:18:36.895Z,100.00
2023-04-10T06:21:03.757Z,100.00
2023-04-10T06:23:30.942Z,100.00
2023-04-10T06:25:57.781Z,100.00
2023-04-10T06:28:24.558Z,100.00
2023-04-10T06:30:51.397Z,100.00
2023-04-10T06:33:18.165Z,100.00
2023-04-10T06:35:44.988Z,100.00
2023-04-10T06:38:12.215Z,100.00
2023-04-10T06:40:39.064Z,100.00
2023-04-10T06:43:05.868Z,99.80
2023-04-10T06:45:32.662Z,99.90
2023-04-10T06:47:59.464Z,99.40
2023-04-10T06:50:26.365Z,97.80
2023-04-10T06:52:59.709Z,95.80
2023-04-10T06:55:30.061Z,92.50
2023-04-10T06:57:57.005Z,89.40
2023-04-10T07:00:24.137Z,86.00
2023-04-10T07:02:51.016Z,83.70
2023-04-10T07:05:18.069Z,80.20
2023-04-10T07:07:44.886Z,78.40
2023-04-10T07:10:11.673Z,75.10
2023-04-10T07:12:38.439Z,74.00
2023-04-10T07:15:05.974Z,72.40
2023-04-10T07:17:32.822Z,72.70
2023-04-10T07:19:59.816Z,69.90
2023-04-10T07:22:27.098Z,69.10
2023-04-10T07:24:53.869Z,68.60
2023-04-10T07:27:20.835Z,67.90
2023-04-10T07:29:48.002Z,68.20
2023-04-10T07:32:14.958Z,67.40
2023-04-10T07:34:42.220Z,66.60
2023-04-10T07:37:09.534Z,66.60
2023-04-10T07:39:36.808Z,63.60
2023-04-10T07:42:03.621Z,66.80
2023-04-10T07:44:30.460Z,64.60
2023-04-10T07:46:57.246Z,61.60
2023-04-10T07:49:23.961Z,64.60
2023-04-10T07:51:50.722Z,63.70
2023-04-10T07:54:17.449Z,65.20
2023-04-10T07:56:44.262Z,65.00
2023-04-10T07:59:12.630Z,63.60
2023-04-10T08:01:39.513Z,63.30
2023-04-10T08:04:06.527Z,61.70
2023-04-10T08:06:33.438Z,63.40
2023-04-10T08:09:01.712Z,62.10
2023-04-10T08:11:35.278Z,61.10
2023-04-10T08:14:05.745Z,61.90
2023-04-10T08:16:35.281Z,64.30
2023-04-10T08:19:02.820Z,60.40
2023-04-10T08:21:31.720Z,60.10
2023-04-10T08:24:00.324Z,59.50
2023-04-10T08:26:28.443Z,57.20
2023-04-10T08:28:57.761Z,58.30
2023-04-10T08:31:26.671Z,55.40
2023-04-10T08:33:53.803Z,56.50
2023-04-10T08:36:21.090Z,56.50
2023-04-10T08:38:48.333Z,54.60
2023-04-10T08:41:18.089Z,52.90
2023-04-10T08:43:46.168Z,53.70
2023-04-10T08:46:14.472Z,54.10
2023-04-10T08:48:52.331Z,53.30
2023-04-10T08:51:26.253Z,52.00
2023-04-10T08:53:58.317Z,54.70
2023-04-10T08:56:26.076Z,52.60
2023-04-10T08:58:53.134Z,53.80
2023-04-10T09:01:21.590Z,52.90
2023-04-10T09:03:49.148Z,51.70
2023-04-10T09:06:16.068Z,51.70
2023-04-10T09:08:42.917Z,52.00
2023-04-10T09:11:10.758Z,50.50
2023-04-10T09:13:46.994Z,51.50
2023-04-10T09:16:14.662Z,50.60
2023-04-10T09:18:50.709Z,50.10
2023-04-10T09:21:21.678Z,48.80
2023-04-10T09:23:49.350Z,47.50
2023-04-10T09:26:30.246Z,49.40
2023-04-10T09:29:06.348Z,48.00
2023-04-10T09:31:35.628Z,46.20
2023-04-10T09:34:18.449Z,46.30
2023-04-10T09:36:56.958Z,44.10
2023-04-10T09:39:35.375Z,45.90
2023-04-10T09:42:02.434Z,44.40
2023-04-10T09:44:37.254Z,44.80
2023-04-10T09:47:19.270Z,43.10
2023-04-10T09:49:54.287Z,42.20
2023-04-10T09:52:26.368Z,44.30
2023-04-10T09:54:55.217Z,41.90
2023-04-10T09:57:23.576Z,41.60
2023-04-10T09:59:52.693Z,42.20
2023-04-10T10:02:21.332Z,39.90
2023-04-10T10:04:49.665Z,41.30
2023-04-10T10:07:18.260Z,41.80
2023-04-10T10:09:47.008Z,42.60
2023-04-10T10:12:17.876Z,42.60
2023-04-10T10:15:15.667Z,41.90
2023-04-10T10:18:04.093Z,40.50
2023-04-10T10:20:33.613Z,38.70
2023-04-10T10:23:04.053Z,39.30
2023-04-10T10:25:31.570Z,40.50
2023-04-10T10:28:03.398Z,39.50
2023-04-10T10:30:34.165Z,39.50
2023-04-10T10:33:05.632Z,39.00
2023-04-10T10:35:34.337Z,38.90
2023-04-10T10:38:03.189Z,40.10
2023-04-10T10:40:35.398Z,38.10
2023-04-10T10:43:14.144Z,38.10
2023-04-10T10:45:54.500Z,38.30
2023-04-10T10:48:21.338Z,35.40
2023-04-10T10:50:58.896Z,37.30
2023-04-10T10:53:37.957Z,36.10
2023-04-10T10:56:19.813Z,34.10
2023-04-10T10:58:54.477Z,34.80
2023-04-10T11:01:22.354Z,35.10
2023-04-10T11:03:49.683Z,37.60
2023-04-10T11:06:21.769Z,36.00
2023-04-10T11:08:53.058Z,35.50
2023-04-10T11:11:24.269Z,35.20
2023-04-10T11:13:56.295Z,34.50
2023-04-10T11:16:41.879Z,34.60
2023-04-10T11:19:15.874Z,34.40
2023-04-10T11:22:08.346Z,36.10
2023-04-10T11:24:59.260Z,34.80
2023-04-10T11:27:39.849Z,37.00
2023-04-10T11:30:31.979Z,35.60
2023-04-10T11:33:00.710Z,35.50
2023-04-10T11:35:28.938Z,37.00
2023-04-10T11:38:16.415Z,35.50
2023-04-10T11:41:15.609Z,35.00
2023-04-10T11:43:42.550Z,35.60
2023-04-10T11:46:09.553Z,36.80
2023-04-10T11:48:37.525Z,35.40
2023-04-10T11:51:08.692Z,34.50
2023-04-10T11:53:35.507Z,33.70
2023-04-10T11:56:02.625Z,35.10
2023-04-10T11:58:33.005Z,33.70
2023-04-10T12:01:04.615Z,34.20
2023-04-10T12:03:36.721Z,34.40
2023-04-10T12:06:06.487Z,35.20
2023-04-10T12:08:39.283Z,34.00
2023-04-10T12:11:07.332Z,34.70
2023-04-10T12:13:34.212Z,35.00
2023-04-10T12:16:03.529Z,34.30
2023-04-10T12:18:31.104Z,33.30
2023-04-10T12:20:59.418Z,34.50
2023-04-10T12:23:28.037Z,34.30
2023-04-10T12:26:11.886Z,34.40
2023-04-10T12:28:41.589Z,33.60
2023-04-10T12:31:09.455Z,33.70
2023-04-10T12:33:36.388Z,34.00
2023-04-10T12:36:03.357Z,35.30
2023-04-10T12:38:41.921Z,35.40
2023-04-10T12:41:12.306Z,34.00
2023-04-10T12:43:40.154Z,34.60
2023-04-10T12:46:09.481Z,33.50
2023-04-10T12:48:36.688Z,34.70
2023-04-10T12:51:04.293Z,35.50
2023-04-10T12:53:31.278Z,35.80
2023-04-10T12:56:06.645Z,36.60
2023-04-10T12:58:33.563Z,35.40
2023-04-10T13:01:07.262Z,34.70
2023-04-10T13:03:34.660Z,34.80
2023-04-10T13:06:01.955Z,35.20
2023-04-10T13:08:32.169Z,34.70
2023-04-10T13:11:09.222Z,34.50
2023-04-10T13:13:36.216Z,35.60
2023-04-10T13:16:03.127Z,35.60
2023-04-10T13:18:29.926Z,34.80
2023-04-10T13:20:56.791Z,35.10
2023-04-10T13:23:23.665Z,35.30
2023-04-10T13:25:51.033Z,34.20
2023-04-10T13:28:18.865Z,34.90
2023-04-10T13:30:45.697Z,35.50
2023-04-10T13:33:12.592Z,35.10
2023-04-10T13:35:42.562Z,34.80
2023-04-10T13:38:11.542Z,36.30
2023-04-10T13:40:38.270Z,35.90
2023-04-10T13:43:06.437Z,36.00
2023-04-10T13:45:34.828Z,35.60
2023-04-10T13:48:01.782Z,35.10
2023-04-10T13:50:28.517Z,36.20
2023-04-10T13:52:55.289Z,35.20
2023-04-10T13:55:21.991Z,34.70
2023-04-10T13:57:48.721Z,34.90
2023-04-10T14:00:15.898Z,34.60
2023-04-10T14:02:42.824Z,36.30
2023-04-10T14:05:10.525Z,35.50
2023-04-10T14:07:37.322Z,35.50
2023-04-10T14:10:04.369Z,35.70
2023-04-10T14:12:31.103Z,35.30
2023-04-10T14:14:58.992Z,35.50
2023-04-10T14:17:25.814Z,35.30
2023-04-10T14:19:53.999Z,35.90
2023-04-10T14:22:21.107Z,36.30
2023-04-10T14:24:47.836Z,35.80
2023-04-10T14:27:14.623Z,36.20
2023-04-10T14:29:50.629Z,36.00
2023-04-10T14:32:21.042Z,36.60
2023-04-10T14:34:47.777Z,36.20
2023-04-10T14:37:15.539Z,35.80
2023-04-10T14:39:42.490Z,36.40
2023-04-10T14:42:10.564Z,36.80
2023-04-10T14:44:37.366Z,35.90
2023-04-10T14:47:06.504Z,36.40
2023-04-10T14:49:33.647Z,37.80
2023-04-10T14:52:00.507Z,37.70
2023-04-10T14:54:27.313Z,38.40
2023-04-10T14:56:54.084Z,39.60
2023-04-10T14:59:21.031Z,39.40
2023-04-10T15:01:47.955Z,39.00
2023-04-10T15:04:14.992Z,38.40
2023-04-10T15:06:42.171Z,39.00
2023-04-10T15:09:08.928Z,38.60
2023-04-10T15:11:35.755Z,39.60
2023-04-10T15:14:02.781Z,40.50
2023-04-10T15:16:30.540Z,40.70
2023-04-10T15:18:57.382Z,40.80
2023-04-10T15:21:24.179Z,41.20
2023-04-10T15:23:51.145Z,41.50
2023-04-10T15:26:17.933Z,41.50
2023-04-10T15:28:44.891Z,40.90
2023-04-10T15:31:11.991Z,41.30
2023-04-10T15:33:39.973Z,40.40
2023-04-10T15:36:08.055Z,40.30
2023-04-10T15:38:36.093Z,40.90
2023-04-10T15:41:09.656Z,40.30
2023-04-10T15:43:37.016Z,41.30
2023-04-10T15:46:04.772Z,40.30
2023-04-10T15:48:31.643Z,40.00
2023-04-10T15:50:59.587Z,40.30
2023-04-10T15:53:26.382Z,40.70
2023-04-10T15:55:53.152Z,40.40
2023-04-10T15:58:19.898Z,41.10
2023-04-10T16:00:46.723Z,41.20
2023-04-10T16:03:13.946Z,41.80
2023-04-10T16:05:41.029Z,41.10
2023-04-10T16:08:07.747Z,41.40
2023-04-10T16:10:35.663Z,42.20
2023-04-10T16:13:04.995Z,41.90
2023-04-10T16:15:35.883Z,42.80
2023-04-10T16:18:07.555Z,42.80
2023-04-10T16:20:34.464Z,43.20
2023-04-10T16:23:01.181Z,43.30
2023-04-10T16:25:28.308Z,44.20
2023-04-10T16:27:55.483Z,43.90
2023-04-10T16:30:22.758Z,44.10
2023-04-10T16:32:49.698Z,44.50
2023-04-10T16:35:18.806Z,45.00
2023-04-10T16:37:46.365Z,45.40
2023-04-10T16:40:13.587Z,46.10
2023-04-10T16:42:42.700Z,45.70
2023-04-10T16:45:10.106Z,46.30
2023-04-10T16:47:37.299Z,46.90
2023-04-10T16:50:04.334Z,47.10
2023-04-10T16:52:32.240Z,47.30
2023-04-10T16:54:59.050Z,47.70
2023-04-10T16:57:25.893Z,48.30
2023-04-10T16:59:59.296Z,48.30
2023-04-10T17:02:26.996Z,48.50
2023-04-10T17:04:57.223Z,48.60
2023-04-10T17:07:24.276Z,49.00
2023-04-10T17:09:51.266Z,49.10
2023-04-10T17:12:18.259Z,49.80
2023-04-10T17:14:45.120Z,49.80
2023-04-10T17:17:12.030Z,50.30
2023-04-10T17:19:38.998Z,49.80
2023-04-10T17:22:13.709Z,50.50
2023-04-10T17:24:40.491Z,50.90
2023-04-10T17:27:07.244Z,51.20
2023-04-10T17:29:38.894Z,51.20
2023-04-10T17:32:06.927Z,51.60
2023-04-10T17:34:34.529Z,51.90
2023-04-10T17:37:01.464Z,52.30
2023-04-10T17:39:28.321Z,52.00
2023-04-10T17:41:56.455Z,52.40
2023-04-10T17:44:23.442Z,52.70
2023-04-10T17:46:50.344Z,52.60
2023-04-10T17:49:17.338Z,52.90
2023-04-10T17:51:44.184Z,53.10
2023-04-10T17:54:11.155Z,54.00
2023-04-10T17:56:38.210Z,54.70
2023-04-10T17:59:05.273Z,54.80
2023-04-10T18:01:32.137Z,55.40
2023-04-10T18:03:59.311Z,55.50
2023-04-10T18:06:26.457Z,56.50
2023-04-10T18:08:53.603Z,56.00
2023-04-10T18:11:20.591Z,56.40
2023-04-10T18:13:47.996Z,57.40
2023-04-10T18:16:14.746Z,57.50
2023-04-10T18:18:42.344Z,57.60
2023-04-10T18:21:10.721Z,58.10
2023-04-10T18:23:38.011Z,58.00
2023-04-10T18:26:04.803Z,58.70
2023-04-10T18:28:31.672Z,58.50
2023-04-10T18:30:58.572Z,59.10
2023-04-10T18:33:26.279Z,58.90
2023-04-10T18:35:57.089Z,59.50
2023-04-10T18:38:24.865Z,59.30
2023-04-10T18:40:55.955Z,59.20
2023-04-10T18:43:29.716Z,59.40
2023-04-10T18:45:56.971Z,58.70
2023-04-10T18:48:23.888Z,59.00
2023-04-10T18:50:54.216Z,59.50
2023-04-10T18:53:21.896Z,59.30
2023-04-10T18:55:53.498Z,59.10
2023-04-10T18:58:21.488Z,59.70
2023-04-10T19:00:48.661Z,59.60
2023-04-10T19:03:15.826Z,59.10
2023-04-10T19:05:43.498Z,59.60
2023-04-10T19:08:14.309Z,59.50
2023-04-10T19:10:42.454Z,59.20
2023-04-10T19:13:11.576Z,59.90
2023-04-10T19:15:43.073Z,60.20
2023-04-10T19:18:10.353Z,60.10
2023-04-10T19:20:50.552Z,60.10
2023-04-10T19:23:20.511Z,60.40
2023-04-10T19:25:51.485Z,60.30
2023-04-10T19:28:18.242Z,60.20
2023-04-10T19:30:45.155Z,60.60
2023-04-10T19:33:11.946Z,60.60
2023-04-10T19:35:38.687Z,60.10
2023-04-10T19:38:05.464Z,60.40
2023-04-10T19:40:32.321Z,60.70
2023-04-10T19:43:00.420Z,61.00
2023-04-10T19:45:28.965Z,60.20
2023-04-10T19:47:56.849Z,60.80
2023-04-10T19:50:23.943Z,60.50
2023-04-10T19:52:51.742Z,61.30
2023-04-10T19:55:19.292Z,61.20
2023-04-10T19:57:46.087Z,61.50
2023-04-10T20:00:13.303Z,61.60
2023-04-10T20:02:40.649Z,61.90
2023-04-10T20:05:08.019Z,62.00
2023-04-10T20:07:35.728Z,62.50
2023-04-10T20:10:03.513Z,62.70
2023-04-10T20:12:34.037Z,62.30
2023-04-10T20:15:01.656Z,62.40
2023-04-10T20:17:28.900Z,62.70
2023-04-10T20:19:55.908Z,62.90
2023-04-10T20:22:22.723Z,63.10
2023-04-10T20:24:49.492Z,62.80
2023-04-10T20:27:16.297Z,63.20
2023-04-10T20:29:43.202Z,63.40
2023-04-10T20:32:09.932Z,63.30
2023-04-10T20:34:37.407Z,63.60
2023-04-10T20:37:05.516Z,63.70
2023-04-10T20:39:37.632Z,64.20
2023-04-10T20:42:05.953Z,64.00
2023-04-10T20:44:36.943Z,64.10
2023-04-10T20:47:05.749Z,64.20
2023-04-10T20:49:32.710Z,64.00
2023-04-10T20:51:59.760Z,64.10
2023-04-10T20:54:27.254Z,63.80
2023-04-10T20:56:54.025Z,64.40
2023-04-10T20:59:20.770Z,64.20
2023-04-10T21:01:47.624Z,63.50
2023-04-10T21:04:15.034Z,63.80
2023-04-10T21:06:41.965Z,63.80
2023-04-10T21:09:08.760Z,63.70
2023-04-10T21:11:35.654Z,63.40
2023-04-10T21:14:02.445Z,63.80
2023-04-10T21:16:31.064Z,63.80
2023-04-10T21:18:58.066Z,63.50
2023-04-10T21:21:25.197Z,63.40
2023-04-10T21:23:52.121Z,63.60
2023-04-10T21:26:18.880Z,63.50
2023-04-10T21:28:45.700Z,63.40
2023-04-10T21:31:12.484Z,63.20
2023-04-10T21:33:39.282Z,63.50
2023-04-10T21:36:06.574Z,63.50
2023-04-10T21:38:34.046Z,63.20
2023-04-10T21:41:01.104Z,62.80
2023-04-10T21:43:27.883Z,62.50
2023-04-10T21:45:54.821Z,62.70
2023-04-10T21:48:21.737Z,62.70
2023-04-10T21:50:50.038Z,62.40
2023-04-10T21:53:16.732Z,62.30
2023-04-10T21:55:43.516Z,62.00
2023-04-10T21:58:10.235Z,62.30
2023-04-10T22:00:37.023Z,62.10
2023-04-10T22:03:04.109Z,61.70
2023-04-10T22:05:31.814Z,62.20
2023-04-10T22:07:58.650Z,61.60
2023-04-10T22:10:25.469Z,61.30
2023-04-10T22:12:52.260Z,61.40
2023-04-10T22:15:19.105Z,61.00
2023-04-10T22:17:46.035Z,60.90
2023-04-10T22:20:12.942Z,61.00
2023-04-10T22:22:39.684Z,60.80
2023-04-10T22:25:06.697Z,61.10
2023-04-10T22:27:33.686Z,60.80
2023-04-10T22:30:03.941Z,60.50
2023-04-10T22:32:31.613Z,60.60
2023-04-10T22:34:59.910Z,60.20
2023-04-10T22:37:27.614Z,60.20
2023-04-10T22:39:56.222Z,59.70
2023-04-10T22:42:23.852Z,59.80
2023-04-10T22:44:50.723Z,59.50
2023-04-10T22:47:17.863Z,59.40
2023-04-10T22:49:45.225Z,58.60
2023-04-10T22:52:16.242Z,58.40
2023-04-10T22:54:43.001Z,58.20
2023-04-10T22:57:09.924Z,58.40
2023-04-10T22:59:37.198Z,58.00
2023-04-10T23:02:04.241Z,57.20
2023-04-10T23:04:31.335Z,56.70
2023-04-10T23:06:58.176Z,56.50
2023-04-10T23:09:25.600Z,56.20
2023-04-10T23:11:52.318Z,56.40
2023-04-10T23:14:19.570Z,56.30
2023-04-10T23:16:46.478Z,55.70
2023-04-10T23:19:13.347Z,55.80
2023-04-10T23:21:40.482Z,55.60
2023-04-10T23:24:07.620Z,56.00
2023-04-10T23:26:34.379Z,55.80
2023-04-10T23:29:01.197Z,55.80
2023-04-10T23:31:28.052Z,55.90
2023-04-10T23:33:54.910Z,55.70
2023-04-10T23:36:21.663Z,55.30
2023-04-10T23:38:48.468Z,55.70
2023-04-10T23:41:15.228Z,55.50
2023-04-10T23:43:42.068Z,55.50
2023-04-10T23:46:08.894Z,55.30
2023-04-10T23:48:35.788Z,55.30
2023-04-10T23:51:06.506Z,55.20
2023-04-10T23:53:33.755Z,55.20
2023-04-10T23:56:01.146Z,55.40
2023-04-10T23:58:27.880Z,55.40
